Time;durP1;ratioP1;P1;durP2;ratioP2;P2;SDS_P1;SDS_P2;PMS_P1;PMS_P2;Temp;Humidity;BMP_temperature;BMP_pressure;BME280_temperature;BME280_humidity;BME280_pressure;Samples;Min_cycle;Max_cycle;Signal;HPM_P1;HPM_P2
2022/04/13 04:00:28;;;;;;;7.30;5.88;;;9.90;99.90;;;;;;5860362;23;20252;-68
2022/04/13 04:02:55;;;;;;;6.20;5.18;;;9.80;99.90;;;;;;4971641;28;20204;-68
2022/04/13 04:05:22;;;;;;;6.72;5.15;;;9.80;99.90;;;;;;4966450;28;20212;-68
2022/04/13 04:07:49;;;;;;;5.70;5.10;;;9.80;99.90;;;;;;4953003;28;20223;-68
2022/04/13 04:10:16;;;;;;;4.45;4.15;;;9.80;99.90;;;;;;4975946;28;20274;-68
2022/04/13 04:12:43;;;;;;;5.97;5.15;;;9.80;99.90;;;;;;4982986;28;20551;-68
2022/04/13 04:15:10;;;;;;;5.00;4.70;;;9.70;99.90;;;;;;4958900;28;20210;-68
2022/04/13 04:17:38;;;;;;;5.55;5.05;;;9.70;99.90;;;;;;4979710;28;20204;-68
2022/04/13 04:20:07;;;;;;;5.80;5.30;;;9.70;99.90;;;;;;4980982;28;20264;-69
2022/04/13 04:22:35;;;;;;;4.70;4.40;;;9.60;99.90;;;;;;4993966;28;20222;-68
2022/04/13 04:25:02;;;;;;;5.25;4.82;;;9.60;99.90;;;;;;5000199;23;20250;-69
2022/04/13 04:27:29;;;;;;;5.30;4.80;;;9.60;99.90;;;;;;4969453;28;20229;-69
2022/04/13 04:29:56;;;;;;;5.75;5.25;;;9.60;99.90;;;;;;4972041;28;20213;-68
2022/04/13 04:32:22;;;;;;;9.77;5.53;;;9.60;99.90;;;;;;4973514;28;20218;-69
2022/04/13 04:34:51;;;;;;;4.38;3.97;;;9.60;99.90;;;;;;4974136;28;20263;-69
2022/04/13 04:37:17;;;;;;;6.30;5.15;;;9.60;99.90;;;;;;4973716;28;20712;-69
2022/04/13 04:39:44;;;;;;;8.13;5.10;;;9.50;99.90;;;;;;4973771;28;20263;-69
2022/04/13 04:42:11;;;;;;;5.40;4.90;;;9.50;99.90;;;;;;4971075;28;20215;-69
2022/04/13 04:44:38;;;;;;;5.00;4.70;;;9.50;99.90;;;;;;4975331;28;20205;-69
2022/04/13 04:47:05;;;;;;;5.72;5.22;;;9.50;99.90;;;;;;4973725;28;20267;-69
2022/04/13 04:49:32;;;;;;;5.75;5.18;;;9.50;99.90;;;;;;4973543;28;20209;-69
2022/04/13 04:51:59;;;;;;;8.45;5.78;;;9.50;99.90;;;;;;4965340;28;20220;-69
2022/04/13 04:54:26;;;;;;;5.93;5.40;;;9.50;99.90;;;;;;4981360;28;20204;-69
2022/04/13 04:56:53;;;;;;;5.28;4.70;;;9.40;99.90;;;;;;4972687;28;20228;-69
2022/04/13 04:59:20;;;;;;;5.28;4.88;;;9.50;99.90;;;;;;4973312;28;20213;-69
2022/04/13 05:01:46;;;;;;;6.00;5.20;;;9.50;99.90;;;;;;4973166;28;20559;-69
2022/04/13 05:04:13;;;;;;;5.35;4.93;;;9.50;99.90;;;;;;4977775;28;20642;-69
2022/04/13 05:06:39;;;;;;;9.32;5.70;;;9.50;99.90;;;;;;4954472;28;20233;-69
2022/04/13 05:09:08;;;;;;;5.78;5.28;;;9.60;99.90;;;;;;4977338;28;20207;-69
2022/04/13 05:11:34;;;;;;;6.18;5.55;;;9.60;99.90;;;;;;4973625;28;20300;-69
2022/04/13 05:14:01;;;;;;;5.93;5.53;;;9.60;99.90;;;;;;4975724;28;20258;-70
2022/04/13 05:16:28;;;;;;;7.43;5.20;;;9.60;99.90;;;;;;4975564;28;20228;-69
2022/04/13 05:18:54;;;;;;;6.47;5.80;;;9.70;99.90;;;;;;4973527;28;20215;-69
2022/04/13 05:21:21;;;;;;;5.85;5.30;;;9.70;99.90;;;;;;4973305;28;20200;-69
2022/04/13 05:23:48;;;;;;;5.85;5.40;;;9.70;99.90;;;;;;4973358;28;20231;-70
2022/04/13 05:26:18;;;;;;;6.60;5.60;;;9.80;99.90;;;;;;4972992;28;20240;-69
2022/04/13 05:28:45;;;;;;;7.70;5.85;;;9.80;99.90;;;;;;4971232;28;20236;-69
2022/04/13 05:31:12;;;;;;;5.40;4.95;;;9.90;99.90;;;;;;4972357;28;20291;-69
2022/04/13 05:33:39;;;;;;;7.72;5.50;;;9.90;99.90;;;;;;4966432;28;20223;-69
2022/04/13 05:36:06;;;;;;;9.50;6.10;;;9.90;99.90;;;;;;4973496;28;20304;-69
2022/04/13 05:38:34;;;;;;;5.60;5.10;;;10.00;99.90;;;;;;4971700;28;20207;-68
2022/04/13 05:41:01;;;;;;;5.82;5.40;;;10.00;99.90;;;;;;4972279;28;20204;-69
2022/04/13 05:43:31;;;;;;;6.65;5.60;;;10.10;99.90;;;;;;4972551;28;20231;-69
2022/04/13 05:45:58;;;;;;;7.47;5.95;;;10.20;99.90;;;;;;4972905;28;20263;-69
2022/04/13 05:48:24;;;;;;;5.97;5.47;;;10.20;99.90;;;;;;4975799;28;20232;-69
2022/04/13 05:50:52;;;;;;;7.03;6.07;;;10.30;99.90;;;;;;4972613;28;20208;-69
2022/04/13 05:53:19;;;;;;;7.35;6.07;;;10.40;99.90;;;;;;4978271;28;20207;-69
2022/04/13 05:55:46;;;;;;;7.07;6.38;;;10.40;99.90;;;;;;4972543;28;20295;-68
2022/04/13 05:58:13;;;;;;;6.10;5.38;;;10.40;99.90;;;;;;4974742;28;20205;-68
2022/04/13 06:00:41;;;;;;;6.90;6.00;;;10.50;99.90;;;;;;4984808;28;20205;-69
2022/04/13 06:03:08;;;;;;;6.60;6.00;;;10.60;99.90;;;;;;4969187;28;20204;-69
2022/04/13 06:05:38;;;;;;;6.10;5.43;;;10.60;99.90;;;;;;4972609;28;20447;-69
2022/04/13 06:08:05;;;;;;;6.93;6.13;;;10.60;99.90;;;;;;4972934;28;20239;-69
2022/04/13 06:10:32;;;;;;;8.73;6.78;;;10.70;99.90;;;;;;4954967;28;20217;-69
2022/04/13 06:12:59;;;;;;;7.75;6.93;;;10.70;99.90;;;;;;4972427;28;20208;-69
2022/04/13 06:15:28;;;;;;;6.88;6.28;;;10.80;99.90;;;;;;4971578;28;20228;-69
2022/04/13 06:17:56;;;;;;;9.18;5.90;;;10.80;99.90;;;;;;4968162;28;20211;-69
2022/04/13 06:20:23;;;;;;;7.43;6.53;;;10.70;99.90;;;;;;4971746;28;20208;-72
2022/04/13 06:22:52;;;;;;;6.70;6.05;;;10.70;99.90;;;;;;4972581;28;20205;-69
2022/04/13 06:25:19;;;;;;;7.03;6.35;;;10.80;99.90;;;;;;4980501;28;20248;-69
2022/04/13 06:27:46;;;;;;;7.80;6.45;;;10.90;99.90;;;;;;4971988;28;20217;-69
2022/04/13 06:30:14;;;;;;;6.47;5.90;;;10.90;99.90;;;;;;4971671;28;20271;-69
2022/04/13 06:32:42;;;;;;;8.15;5.97;;;11.00;99.90;;;;;;4983437;28;20637;-69
2022/04/13 06:35:12;;;;;;;6.75;6.15;;;11.00;99.90;;;;;;4978220;28;20991;-70
2022/04/13 06:37:40;;;;;;;7.30;6.53;;;11.10;99.90;;;;;;4970091;28;20206;-69
2022/04/13 06:40:08;;;;;;;6.95;6.22;;;11.20;99.90;;;;;;4974114;28;20208;-69
2022/04/13 06:42:36;;;;;;;14.43;6.82;;;11.20;99.90;;;;;;4977926;28;20212;-69
2022/04/13 06:45:03;;;;;;;8.25;6.65;;;11.30;99.90;;;;;;4980020;28;20200;-69
2022/04/13 06:47:30;;;;;;;8.05;7.25;;;11.30;99.90;;;;;;4981067;28;20216;-69
2022/04/13 06:49:57;;;;;;;8.30;7.30;;;11.30;99.90;;;;;;4980528;28;20204;-69
2022/04/13 06:52:25;;;;;;;6.68;6.07;;;11.30;99.90;;;;;;4983137;28;20220;-69
2022/04/13 06:54:52;;;;;;;6.45;5.75;;;11.40;99.90;;;;;;4993010;28;20237;-69
2022/04/13 06:57:19;;;;;;;8.38;7.30;;;11.40;99.90;;;;;;4988700;28;20204;-70
2022/04/13 06:59:45;;;;;;;8.80;7.90;;;11.50;99.90;;;;;;4972222;28;20205;-69
2022/04/13 07:02:12;;;;;;;8.02;6.50;;;11.60;99.90;;;;;;4974672;28;20208;-69
2022/04/13 07:04:40;;;;;;;8.27;7.45;;;11.70;99.90;;;;;;4974527;28;20295;-69
2022/04/13 07:07:07;;;;;;;7.67;6.97;;;11.90;99.90;;;;;;4972067;28;20220;-69
2022/04/13 07:09:35;;;;;;;7.80;7.00;;;12.00;99.90;;;;;;4971973;28;20965;-69
2022/04/13 07:12:02;;;;;;;8.15;7.05;;;12.10;99.90;;;;;;4976293;28;20466;-69
2022/04/13 07:14:29;;;;;;;8.13;7.33;;;12.20;99.90;;;;;;4988585;28;20208;-69
2022/04/13 07:16:55;;;;;;;6.83;6.17;;;12.20;99.90;;;;;;4972110;28;20613;-69
2022/04/13 07:19:22;;;;;;;8.57;7.13;;;12.40;99.90;;;;;;4973192;28;20518;-71
2022/04/13 07:21:49;;;;;;;8.90;6.70;;;12.50;99.90;;;;;;4973841;28;20464;-69
2022/04/13 07:24:16;;;;;;;7.87;7.07;;;12.50;99.90;;;;;;4971048;28;20464;-69
2022/04/13 07:26:44;;;;;;;8.60;7.80;;;12.50;99.90;;;;;;4975670;28;20988;-68
2022/04/13 07:29:10;;;;;;;9.30;8.10;;;12.60;99.90;;;;;;4970508;28;20566;-69
2022/04/13 07:31:38;;;;;;;7.87;6.63;;;12.70;99.90;;;;;;4972296;28;20479;-69
2022/04/13 07:34:04;;;;;;;9.17;7.30;;;12.90;99.90;;;;;;4975173;28;20480;-69
2022/04/13 07:36:31;;;;;;;8.07;7.27;;;13.00;99.90;;;;;;4977529;28;21062;-70
2022/04/13 07:38:58;;;;;;;9.67;7.67;;;13.10;99.90;;;;;;4976080;28;20464;-70
2022/04/13 07:41:24;;;;;;;7.63;6.77;;;13.20;99.90;;;;;;4971244;28;20471;-70
2022/04/13 07:43:52;;;;;;;8.97;7.53;;;13.20;99.90;;;;;;4970071;28;20546;-69
2022/04/13 07:46:19;;;;;;;7.83;7.03;;;13.30;99.90;;;;;;4971724;28;21032;-69
2022/04/13 07:48:46;;;;;;;8.30;7.40;;;13.40;99.90;;;;;;4970974;28;20542;-69
2022/04/13 07:51:13;;;;;;;7.70;6.90;;;13.40;99.90;;;;;;4984571;28;20591;-69
2022/04/13 07:53:40;;;;;;;7.93;7.23;;;13.40;99.90;;;;;;4980803;28;20625;-70
2022/04/13 07:56:07;;;;;;;8.13;6.70;;;13.40;99.90;;;;;;4974454;28;20491;-69
2022/04/13 07:58:34;;;;;;;9.30;6.90;;;13.40;99.90;;;;;;4978083;28;20949;-69
2022/04/13 08:01:02;;;;;;;8.63;7.17;;;13.50;99.90;;;;;;4973581;28;20993;-69
2022/04/13 08:03:29;;;;;;;6.97;6.30;;;13.50;99.90;;;;;;4975041;28;20475;-69
2022/04/13 08:05:55;;;;;;;7.73;6.43;;;13.60;99.90;;;;;;4969951;28;20492;-69
2022/04/13 08:08:22;;;;;;;8.30;7.53;;;13.70;99.90;;;;;;4976103;28;20490;-69
2022/04/13 08:10:49;;;;;;;7.20;6.50;;;13.80;99.90;;;;;;4961856;28;20979;-69
2022/04/13 08:13:15;;;;;;;8.57;7.77;;;13.90;99.90;;;;;;4966874;28;20513;-69
2022/04/13 08:15:42;;;;;;;7.83;6.90;;;14.00;99.90;;;;;;4973968;28;20488;-69
2022/04/13 08:18:10;;;;;;;7.87;6.97;;;14.10;99.90;;;;;;4975998;28;20968;-69
2022/04/13 08:20:38;;;;;;;10.60;7.43;;;14.20;99.90;;;;;;4970380;28;20467;-69
2022/04/13 08:23:05;;;;;;;8.53;7.73;;;14.20;99.90;;;;;;4972571;28;20514;-69
2022/04/13 08:25:31;;;;;;;9.20;7.77;;;14.40;99.90;;;;;;4974206;28;20503;-69
2022/04/13 08:27:58;;;;;;;8.10;7.30;;;14.50;99.90;;;;;;4975357;28;20497;-69
2022/04/13 08:30:26;;;;;;;8.53;7.83;;;14.60;99.90;;;;;;4971847;28;20480;-69
2022/04/13 08:32:52;;;;;;;8.87;7.33;;;14.80;99.90;;;;;;4972510;28;20506;-69
2022/04/13 08:35:20;;;;;;;8.57;7.67;;;14.80;99.90;;;;;;4973691;28;21018;-70
2022/04/13 08:37:47;;;;;;;10.13;8.53;;;14.90;99.90;;;;;;4971599;28;20495;-69
2022/04/13 08:40:16;;;;;;;11.73;8.47;;;15.00;99.90;;;;;;4973231;28;20475;-70
2022/04/13 08:42:47;;;;;;;8.70;7.90;;;14.90;99.90;;;;;;4958754;28;20566;-69
2022/04/13 08:45:21;;;;;;;7.70;7.00;;;15.10;99.90;;;;;;4973784;28;20511;-68
2022/04/13 08:47:49;;;;;;;8.10;7.30;;;15.20;99.90;;;;;;4970669;28;20584;-69
2022/04/13 08:50:18;;;;;;;7.70;7.00;;;15.40;99.90;;;;;;4967937;28;20478;-69
2022/04/13 08:52:52;;;;;;;8.13;7.17;;;15.40;99.90;;;;;;4975924;28;20472;-69
2022/04/13 08:55:22;;;;;;;8.70;7.80;;;15.40;99.90;;;;;;4974483;28;20534;-69
2022/04/13 08:57:50;;;;;;;8.30;7.50;;;15.60;99.90;;;;;;4974210;28;20468;-69
2022/04/13 09:00:19;;;;;;;7.80;7.10;;;15.60;99.90;;;;;;4969001;28;20476;-69
2022/04/13 09:03:01;;;;;;;8.23;7.43;;;15.70;99.90;;;;;;4972959;28;20827;-69
2022/04/13 09:05:29;;;;;;;8.40;7.70;;;15.70;99.90;;;;;;4971053;28;20523;-69
2022/04/13 09:08:07;;;;;;;7.40;6.50;;;15.80;99.90;;;;;;4969732;28;20494;-69
2022/04/13 09:10:34;;;;;;;8.17;7.37;;;15.90;99.90;;;;;;4972270;28;20468;-69
2022/04/13 09:13:02;;;;;;;8.20;7.50;;;16.00;99.90;;;;;;4973963;28;20463;-69
2022/04/13 09:15:29;;;;;;;11.50;8.50;;;16.00;99.90;;;;;;4972761;28;20580;-69
2022/04/13 09:17:56;;;;;;;9.70;7.27;;;16.10;99.90;;;;;;4974158;28;20460;-69
2022/04/13 09:20:23;;;;;;;8.30;7.07;;;16.20;99.90;;;;;;4961985;28;20484;-69
2022/04/13 09:22:51;;;;;;;8.00;7.20;;;16.40;99.90;;;;;;4973271;28;20471;-69
2022/04/13 09:25:20;;;;;;;6.87;6.33;;;16.40;99.90;;;;;;4972577;28;20539;-68
2022/04/13 09:27:49;;;;;;;8.43;6.80;;;16.50;99.90;;;;;;4972850;28;20505;-68
2022/04/13 09:30:16;;;;;;;8.10;7.27;;;16.50;99.90;;;;;;4961773;28;20515;-68
2022/04/13 09:32:44;;;;;;;8.33;6.43;;;16.60;99.90;;;;;;4971134;28;20530;-68
2022/04/13 09:35:11;;;;;;;8.70;7.80;;;16.60;99.90;;;;;;4969112;28;20487;-68
2022/04/13 09:37:39;;;;;;;7.10;6.40;;;16.80;99.90;;;;;;4968917;28;20599;-68
2022/04/13 09:40:07;;;;;;;7.80;7.10;;;16.90;99.90;;;;;;4963604;28;20612;-68
2022/04/13 09:42:35;;;;;;;7.20;6.50;;;17.10;99.90;;;;;;4967035;28;20908;-68
2022/04/13 09:45:03;;;;;;;8.23;7.33;;;17.20;99.90;;;;;;4971479;28;20464;-70
2022/04/13 09:47:33;;;;;;;7.87;7.20;;;17.40;99.90;;;;;;4972050;28;21000;-69
2022/04/13 09:50:00;;;;;;;7.50;6.70;;;17.50;99.90;;;;;;4957160;28;20548;-69
2022/04/13 09:52:28;;;;;;;8.30;6.83;;;17.50;99.90;;;;;;4966510;28;20468;-69
2022/04/13 09:54:55;;;;;;;8.97;7.37;;;17.70;99.90;;;;;;4969390;28;20480;-69
2022/04/13 09:57:22;;;;;;;7.63;6.97;;;17.80;99.90;;;;;;4969100;28;20961;-69
2022/04/13 09:59:56;;;;;;;10.40;7.27;;;17.90;99.90;;;;;;4967398;28;20542;-69
2022/04/13 10:02:35;;;;;;;8.10;7.30;;;17.80;99.90;;;;;;4964472;28;20471;-70
2022/04/13 10:05:02;;;;;;;8.40;7.60;;;17.90;99.90;;;;;;4966686;28;20491;-69
2022/04/13 10:07:29;;;;;;;8.17;7.10;;;18.10;99.90;;;;;;4969962;28;20472;-70
2022/04/13 10:09:56;;;;;;;11.30;6.90;;;18.10;99.90;;;;;;4970412;28;20487;-70
2022/04/13 10:12:22;;;;;;;8.13;6.83;;;18.20;99.90;;;;;;4967945;28;20530;-69
2022/04/13 10:14:49;;;;;;;7.53;6.60;;;18.20;99.90;;;;;;4968440;28;20468;-69
2022/04/13 10:17:19;;;;;;;7.53;6.83;;;18.30;99.90;;;;;;4969850;28;20468;-69
2022/04/13 10:19:53;;;;;;;7.40;6.70;;;18.40;99.90;;;;;;4971051;28;20925;-70
2022/04/13 10:22:19;;;;;;;8.73;6.60;;;18.50;99.90;;;;;;4969173;28;20557;-70
2022/04/13 10:24:46;;;;;;;8.50;7.07;;;18.70;99.90;;;;;;4962793;28;20507;-70
2022/04/13 10:27:15;;;;;;;8.97;7.00;;;18.70;99.90;;;;;;4969203;28;21183;-70
2022/04/13 10:29:44;;;;;;;6.93;6.30;;;18.80;99.90;;;;;;4962779;28;20492;-71
2022/04/13 10:32:13;;;;;;;7.93;7.10;;;18.80;99.90;;;;;;4963030;28;20876;-72
2022/04/13 10:34:42;;;;;;;7.17;5.97;;;18.90;99.90;;;;;;4964577;28;20544;-71
2022/04/13 10:37:11;;;;;;;6.30;5.80;;;19.00;99.90;;;;;;4964336;28;20500;-71
2022/04/13 10:39:39;;;;;;;5.77;5.37;;;19.10;99.90;;;;;;4971851;28;20472;-69
2022/04/13 10:42:07;;;;;;;6.60;5.90;;;19.40;99.90;;;;;;4953845;28;20569;-70
2022/04/13 10:44:36;;;;;;;6.97;6.17;;;19.50;99.90;;;;;;4969396;23;21242;-70
2022/04/13 10:47:04;;;;;;;6.40;5.90;;;19.60;99.90;;;;;;4971722;28;20546;-71
2022/04/13 10:49:45;;;;;;;8.20;5.60;;;19.70;99.90;;;;;;4968658;28;20844;-68
2022/04/13 10:52:17;;;;;;;6.43;5.70;;;19.70;99.70;;;;;;4970801;28;20546;-67
2022/04/13 10:54:50;;;;;;;7.97;7.17;;;19.70;99.50;;;;;;4966321;28;20484;-67
2022/04/13 10:57:20;;;;;;;6.40;5.80;;;19.80;99.40;;;;;;4971707;28;20515;-67
2022/04/13 10:59:52;;;;;;;6.50;5.57;;;19.90;99.70;;;;;;4970301;28;20499;-67
2022/04/13 11:02:29;;;;;;;7.43;6.10;;;19.90;99.60;;;;;;4971232;28;20478;-69
2022/04/13 11:04:57;;;;;;;6.60;5.60;;;20.10;99.50;;;;;;4970044;28;20483;-68
2022/04/13 11:07:25;;;;;;;6.40;5.70;;;20.20;99.60;;;;;;4971628;28;20507;-70
2022/04/13 11:09:56;;;;;;;8.00;6.37;;;20.20;99.00;;;;;;4971020;28;20494;-70
2022/04/13 11:12:24;;;;;;;9.30;6.30;;;20.10;99.40;;;;;;4963918;28;20945;-68
2022/04/13 11:14:52;;;;;;;7.23;6.33;;;20.20;99.30;;;;;;4964957;28;20799;-69
2022/04/13 11:17:24;;;;;;;6.30;5.50;;;20.20;99.00;;;;;;4968466;28;20531;-69
2022/04/13 11:19:51;;;;;;;6.47;5.60;;;20.30;99.00;;;;;;4961265;28;20555;-69
2022/04/13 11:22:20;;;;;;;9.17;6.03;;;20.40;99.20;;;;;;4970584;28;20500;-69
2022/04/13 11:24:58;;;;;;;7.75;6.15;;;20.50;99.20;;;;;;4966371;28;20468;-68
2022/04/13 11:27:25;;;;;;;8.30;6.00;;;20.60;99.20;;;;;;4991873;28;20204;-70
2022/04/13 11:30:00;;;;;;;6.47;5.90;;;20.70;99.40;;;;;;4972876;28;20577;-68
2022/04/13 11:32:29;;;;;;;6.77;5.50;;;20.90;99.20;;;;;;4957405;28;20464;-68
2022/04/13 11:34:59;;;;;;;5.50;5.00;;;20.80;98.80;;;;;;4956385;28;20555;-68
2022/04/13 11:37:42;;;;;;;6.73;5.60;;;21.00;98.80;;;;;;4968445;28;20460;-68
2022/04/13 11:40:12;;;;;;;5.93;4.67;;;21.10;98.30;;;;;;4971648;28;20479;-68
2022/04/13 11:43:03;;;;;;;9.23;5.70;;;21.20;98.40;;;;;;4991169;28;20459;-69
2022/04/13 11:45:30;;;;;;;5.17;4.77;;;21.30;98.30;;;;;;4974784;28;20582;-68
2022/04/13 11:48:03;;;;;;;7.70;5.00;;;21.40;98.50;;;;;;4964056;28;20463;-69
2022/04/13 11:50:33;;;;;;;7.27;5.20;;;21.50;98.60;;;;;;4969654;28;20490;-69
2022/04/13 11:53:05;;;;;;;5.70;5.20;;;21.60;98.30;;;;;;4960049;28;20499;-69
2022/04/13 11:55:35;;;;;;;5.33;5.03;;;21.50;98.00;;;;;;4974470;28;20483;-70
2022/04/13 11:58:23;;;;;;;5.77;5.07;;;21.60;98.00;;;;;;4980762;28;20471;-69
2022/04/13 12:00:57;;;;;;;8.17;5.40;;;21.60;97.60;;;;;;4955079;29;20511;-70
2022/04/13 12:03:27;;;;;;;9.63;5.57;;;21.70;97.40;;;;;;4956272;28;20490;-69
2022/04/13 12:05:56;;;;;;;4.27;3.87;;;21.70;97.70;;;;;;4955392;28;20484;-70
2022/04/13 12:08:26;;;;;;;4.73;4.10;;;21.80;98.00;;;;;;4956457;28;20978;-68
2022/04/13 12:10:56;;;;;;;6.07;4.70;;;21.80;97.90;;;;;;4954695;28;20540;-69
2022/04/13 12:13:23;;;;;;;6.63;4.70;;;21.90;97.90;;;;;;4964828;28;20470;-68
2022/04/13 12:15:52;;;;;;;4.43;4.03;;;21.90;97.70;;;;;;4973579;28;20486;-70
2022/04/13 12:18:20;;;;;;;4.13;3.73;;;21.80;97.40;;;;;;4986391;28;20459;-69
2022/04/13 12:20:48;;;;;;;6.43;4.47;;;21.90;97.50;;;;;;4991232;28;20951;-69
2022/04/13 12:23:20;;;;;;;6.03;3.80;;;22.00;97.50;;;;;;4974537;28;20455;-69
2022/04/13 12:25:50;;;;;;;5.47;4.50;;;22.10;98.10;;;;;;4974239;28;21015;-69
2022/04/13 12:28:18;;;;;;;5.10;4.43;;;22.10;97.20;;;;;;4975074;28;20788;-69
2022/04/13 12:30:55;;;;;;;8.23;4.33;;;22.20;97.50;;;;;;4966483;28;20487;-68
2022/04/13 12:33:23;;;;;;;5.73;5.10;;;22.30;97.40;;;;;;4972756;28;20564;-69
2022/04/13 12:35:54;;;;;;;7.00;5.33;;;22.30;97.40;;;;;;4993876;28;20478;-68
2022/04/13 12:38:26;;;;;;;8.03;4.80;;;22.30;96.90;;;;;;4993928;28;20494;-70
2022/04/13 12:41:09;;;;;;;7.23;4.50;;;22.40;96.80;;;;;;4983490;28;20460;-68
2022/04/13 12:43:37;;;;;;;4.40;4.00;;;22.30;96.50;;;;;;4970054;28;20522;-69
2022/04/13 12:46:15;;;;;;;7.50;4.10;;;22.40;96.80;;;;;;4954501;28;20499;-69
2022/04/13 12:48:44;;;;;;;4.87;4.07;;;22.50;96.90;;;;;;4973817;28;20642;-67
2022/04/13 12:51:11;;;;;;;8.07;4.80;;;22.60;97.20;;;;;;4970576;28;20975;-70
2022/04/13 12:53:43;;;;;;;5.77;4.50;;;22.50;96.90;;;;;;4972222;28;20498;-68
2022/04/13 12:56:14;;;;;;;6.70;5.10;;;22.50;97.30;;;;;;4978576;28;20509;-68
2022/04/13 12:58:42;;;;;;;4.87;4.03;;;22.50;96.90;;;;;;4983866;28;20825;-68
2022/04/13 13:01:11;;;;;;;4.80;4.20;;;22.50;96.90;;;;;;4972158;28;20841;-69
2022/04/13 13:03:40;;;;;;;4.10;3.83;;;22.50;96.80;;;;;;4969168;28;20464;-70
2022/04/13 13:06:08;;;;;;;4.40;4.00;;;22.40;97.10;;;;;;4954573;28;21012;-67
2022/04/13 13:08:35;;;;;;;5.17;4.13;;;22.50;97.00;;;;;;4962928;28;20559;-68
2022/04/13 13:11:02;;;;;;;6.40;5.20;;;22.60;97.00;;;;;;4971973;28;20498;-68
2022/04/13 13:13:38;;;;;;;4.00;3.80;;;22.50;96.60;;;;;;4968907;28;20471;-68
2022/04/13 13:16:05;;;;;;;6.33;5.03;;;22.60;96.50;;;;;;4969593;28;20567;-68
2022/04/13 13:18:32;;;;;;;5.20;4.70;;;22.70;97.00;;;;;;4964299;28;20474;-70
2022/04/13 13:21:00;;;;;;;5.27;4.70;;;22.70;96.70;;;;;;4982831;28;20471;-70
2022/04/13 13:23:27;;;;;;;5.17;4.57;;;22.70;96.60;;;;;;4981227;28;20512;-69
2022/04/13 13:25:54;;;;;;;5.47;4.97;;;22.70;96.60;;;;;;4973259;28;20487;-70
2022/04/13 13:28:24;;;;;;;4.87;4.47;;;22.60;96.60;;;;;;4955172;28;20464;-67
2022/04/13 13:30:55;;;;;;;5.57;4.60;;;22.60;96.60;;;;;;4965450;28;20530;-68
2022/04/13 13:33:22;;;;;;;8.23;4.30;;;22.50;96.60;;;;;;4983981;28;20521;-67
2022/04/13 13:35:49;;;;;;;4.40;4.10;;;22.60;96.90;;;;;;4963936;28;20906;-70
2022/04/13 13:38:19;;;;;;;6.47;6.00;;;22.50;96.70;;;;;;4970345;28;20486;-69
2022/04/13 13:40:47;;;;;;;5.83;4.73;;;22.50;96.60;;;;;;4966900;28;20490;-69
2022/04/13 13:43:41;;;;;;;5.80;4.60;;;22.40;96.80;;;;;;4971692;28;20624;-68
2022/04/13 13:46:21;;;;;;;6.93;5.07;;;22.40;96.50;;;;;;4974985;28;20524;-68
2022/04/13 13:48:49;;;;;;;5.40;4.90;;;22.40;97.30;;;;;;4978511;28;20842;-68
2022/04/13 13:51:16;;;;;;;5.20;4.70;;;22.40;97.00;;;;;;4978924;28;20498;-68
2022/04/13 13:53:44;;;;;;;10.27;5.03;;;22.30;97.20;;;;;;4970720;28;20477;-68
2022/04/13 13:56:11;;;;;;;7.20;5.20;;;22.40;97.70;;;;;;4972706;28;20569;-69
2022/04/13 13:58:38;;;;;;;5.27;4.10;;;22.50;96.70;;;;;;4983921;28;20472;-68
2022/04/13 14:01:04;;;;;;;5.77;4.20;;;22.60;97.20;;;;;;4986476;28;20467;-69
2022/04/13 14:03:32;;;;;;;6.73;4.70;;;22.60;97.50;;;;;;4957015;28;20914;-68
2022/04/13 14:05:59;;;;;;;4.70;4.40;;;22.60;96.80;;;;;;4972638;28;20475;-70
2022/04/13 14:08:26;;;;;;;10.07;5.90;;;22.70;97.00;;;;;;4971832;28;20468;-69
2022/04/13 14:10:53;;;;;;;4.90;4.50;;;22.70;96.70;;;;;;4971359;28;20484;-69
2022/04/13 14:13:19;;;;;;;4.00;3.47;;;22.70;96.80;;;;;;4966557;28;20481;-69
2022/04/13 14:15:47;;;;;;;6.30;4.60;;;22.70;96.30;;;;;;4980064;28;20479;-68
2022/04/13 14:18:13;;;;;;;5.03;4.63;;;22.70;97.30;;;;;;4975774;28;20921;-68
2022/04/13 14:20:41;;;;;;;6.77;4.30;;;22.70;96.80;;;;;;4976788;28;20511;-70
2022/04/13 14:23:08;;;;;;;7.27;4.93;;;22.70;97.10;;;;;;4964167;28;20516;-69
2022/04/13 14:25:35;;;;;;;5.70;4.67;;;22.60;97.20;;;;;;4972644;28;20870;-70
2022/04/13 14:28:02;;;;;;;7.43;5.70;;;22.60;97.20;;;;;;4968418;28;20479;-69
2022/04/13 14:30:30;;;;;;;5.30;4.40;;;22.50;97.10;;;;;;4978202;28;20495;-69
2022/04/13 14:32:57;;;;;;;5.13;4.47;;;22.60;97.50;;;;;;4973817;28;20757;-67
2022/04/13 14:35:24;;;;;;;5.40;4.13;;;22.60;97.30;;;;;;4967233;28;20491;-67
2022/04/13 14:37:54;;;;;;;4.60;3.97;;;22.60;97.50;;;;;;4971561;28;20798;-67
2022/04/13 14:40:22;;;;;;;4.47;4.07;;;22.60;97.40;;;;;;4967685;28;20449;-68
2022/04/13 14:42:49;;;;;;;5.80;5.20;;;22.50;97.20;;;;;;4968340;28;21010;-67
2022/04/13 14:45:16;;;;;;;7.60;5.03;;;22.50;96.90;;;;;;4978380;28;20566;-68
2022/04/13 14:47:44;;;;;;;5.10;4.33;;;22.50;97.40;;;;;;4972108;28;20472;-67
2022/04/13 14:50:11;;;;;;;6.03;4.47;;;22.50;97.30;;;;;;4958010;28;20492;-66
2022/04/13 14:52:38;;;;;;;5.23;4.37;;;22.50;97.30;;;;;;4972219;28;20464;-68
2022/04/13 14:55:07;;;;;;;5.90;4.60;;;22.40;97.60;;;;;;4969485;28;20515;-67
2022/04/13 14:57:35;;;;;;;7.53;4.30;;;22.40;97.60;;;;;;4981556;28;20499;-67
2022/04/13 15:00:02;;;;;;;5.80;4.57;;;22.40;97.70;;;;;;4973866;28;20550;-66
2022/04/13 15:02:29;;;;;;;4.63;4.23;;;22.40;97.60;;;;;;4970174;28;20471;-66
2022/04/13 15:04:56;;;;;;;5.37;4.60;;;22.40;98.20;;;;;;4969805;28;20539;-67
2022/04/13 15:07:22;;;;;;;5.90;5.30;;;22.40;98.10;;;;;;4980659;28;20589;-67
2022/04/13 15:09:49;;;;;;;6.20;4.30;;;22.30;98.30;;;;;;4976794;28;20631;-67
2022/04/13 15:12:17;;;;;;;4.40;4.00;;;22.30;98.60;;;;;;4971159;28;20468;-66
2022/04/13 15:14:44;;;;;;;9.53;5.40;;;22.30;99.00;;;;;;4971024;28;20534;-67
2022/04/13 15:17:11;;;;;;;5.10;4.43;;;22.20;98.70;;;;;;4972232;28;20518;-67
2022/04/13 15:19:38;;;;;;;6.30;4.00;;;22.10;99.10;;;;;;4969840;28;20468;-68
2022/04/13 15:22:05;;;;;;;6.83;4.77;;;22.00;99.20;;;;;;4970895;28;20490;-67
2022/04/13 15:24:33;;;;;;;4.97;4.40;;;21.90;99.20;;;;;;4968576;28;20583;-66
2022/04/13 15:27:00;;;;;;;5.33;4.90;;;21.90;99.30;;;;;;4970751;28;20460;-67
2022/04/13 15:29:28;;;;;;;5.10;4.70;;;21.80;99.40;;;;;;4970411;28;20640;-68
2022/04/13 15:31:55;;;;;;;5.70;5.00;;;21.80;99.50;;;;;;4967483;28;20636;-68
2022/04/13 15:34:21;;;;;;;8.93;4.53;;;21.70;99.70;;;;;;4975009;28;20484;-66
2022/04/13 15:36:48;;;;;;;4.67;3.90;;;21.60;99.80;;;;;;4979385;28;20538;-66
2022/04/13 15:39:15;;;;;;;5.07;4.67;;;21.60;99.90;;;;;;4972010;28;20470;-67
2022/04/13 15:41:43;;;;;;;4.30;3.97;;;21.50;99.90;;;;;;4961508;28;20460;-66
2022/04/13 15:44:11;;;;;;;5.00;4.53;;;21.50;99.90;;;;;;4970812;28;21013;-66
2022/04/13 15:46:40;;;;;;;7.37;5.60;;;21.50;99.90;;;;;;4965081;28;20490;-66
2022/04/13 15:49:07;;;;;;;5.00;4.60;;;21.40;99.90;;;;;;4977357;28;20579;-66
2022/04/13 15:51:35;;;;;;;5.80;5.03;;;21.30;99.90;;;;;;4963136;28;20523;-68
2022/04/13 15:54:02;;;;;;;7.50;4.47;;;21.30;99.90;;;;;;4967905;28;20815;-67
2022/04/13 15:56:29;;;;;;;6.00;4.90;;;21.20;99.90;;;;;;4958607;28;20475;-67
2022/04/13 15:58:55;;;;;;;4.83;4.40;;;21.20;99.90;;;;;;4973957;28;20472;-68
2022/04/13 16:01:22;;;;;;;5.60;4.40;;;21.20;99.90;;;;;;4963706;28;20720;-67
2022/04/13 16:03:51;;;;;;;6.30;4.57;;;21.10;99.90;;;;;;4968508;28;20497;-66
2022/04/13 16:06:18;;;;;;;7.20;4.37;;;21.10;99.90;;;;;;4966889;28;20926;-66
2022/04/13 16:08:45;;;;;;;8.93;5.83;;;21.10;99.90;;;;;;4983775;28;20521;-67
2022/04/13 16:11:11;;;;;;;6.03;5.60;;;21.10;99.90;;;;;;4972623;28;20988;-66
2022/04/13 16:13:38;;;;;;;5.97;5.23;;;21.10;99.90;;;;;;4972458;28;20802;-67
2022/04/13 16:16:05;;;;;;;13.70;6.80;;;21.00;99.90;;;;;;4973191;28;20491;-67
2022/04/13 16:18:32;;;;;;;6.57;5.53;;;21.00;99.90;;;;;;4955818;28;20948;-67
2022/04/13 16:21:00;;;;;;;5.47;4.97;;;21.00;99.90;;;;;;4974561;28;20530;-67
2022/04/13 16:23:27;;;;;;;5.87;5.20;;;21.10;99.90;;;;;;4974457;28;20529;-67
2022/04/13 16:25:54;;;;;;;6.00;5.60;;;21.00;99.90;;;;;;4973553;28;20960;-67
2022/04/13 16:28:20;;;;;;;6.03;5.53;;;21.00;99.90;;;;;;4974360;28;20471;-67
2022/04/13 16:30:47;;;;;;;7.13;6.50;;;21.10;99.90;;;;;;4970757;28;20538;-66
2022/04/13 16:33:15;;;;;;;10.67;8.57;;;21.10;99.90;;;;;;4978367;28;20459;-67
2022/04/13 16:35:43;;;;;;;10.63;9.53;;;21.10;99.90;;;;;;4982551;28;20572;-66
2022/04/13 16:38:11;;;;;;;12.10;9.53;;;21.10;99.90;;;;;;4997807;28;20983;-67
2022/04/13 16:40:38;;;;;;;8.03;6.07;;;21.10;99.90;;;;;;4984943;28;20466;-67
2022/04/13 16:43:05;;;;;;;7.87;5.73;;;21.10;99.90;;;;;;4975269;28;20519;-67
2022/04/13 16:45:32;;;;;;;7.30;6.13;;;21.10;99.90;;;;;;4972887;28;21014;-67
2022/04/13 16:48:00;;;;;;;9.53;6.70;;;21.00;99.90;;;;;;4974990;28;20468;-66
2022/04/13 16:50:27;;;;;;;6.20;5.70;;;21.00;99.90;;;;;;4973573;28;20494;-67
2022/04/13 16:52:55;;;;;;;5.93;5.53;;;20.90;99.90;;;;;;4974194;28;20547;-67